Time;durP1;ratioP1;P1;durP2;ratioP2;P2;SDS_P1;SDS_P2;PMS_P1;PMS_P2;Temp;Humidity;BMP_temperature;BMP_pressure;BME280_temperature;BME280_humidity;BME280_pressure;Samples;Min_cycle;Max_cycle;Signal;HPM_P1;HPM_P2
2021/01/01 00:00:47;;;;;;;15.60;10.70;;;;;;;4.41;70.48;95393.38;5045419;28;20277;-70
2021/01/01 00:03:13;;;;;;;13.80;10.90;;;;;;;4.71;69.12;95386.81;5050009;28;20953;-70
2021/01/01 00:05:39;;;;;;;13.63;10.23;;;;;;;4.62;68.62;95392.97;5055526;28;20430;-70
2021/01/01 00:08:05;;;;;;;15.57;11.63;;;;;;;4.92;68.18;95382.91;5056759;28;20202;-68
2021/01/01 00:10:31;;;;;;;15.03;11.60;;;;;;;4.86;68.64;95383.56;5052100;28;20500;-68
2021/01/01 00:12:57;;;;;;;13.83;10.37;;;;;;;4.90;67.79;95379.69;5062971;28;20480;-70
2021/01/01 00:15:23;;;;;;;15.67;10.77;;;;;;;4.96;68.09;95378.25;5063358;28;20976;-68
2021/01/01 00:17:49;;;;;;;14.50;10.30;;;;;;;4.90;67.72;95379.69;5066824;28;20429;-70
2021/01/01 00:20:15;;;;;;;13.70;10.33;;;;;;;4.96;68.20;95384.22;5067879;28;20190;-69
2021/01/01 00:22:44;;;;;;;15.70;10.57;;;;;;;4.73;68.89;95369.28;5067614;28;20206;-71
2021/01/01 00:25:11;;;;;;;15.43;10.73;;;;;;;4.80;68.27;95386.81;5038274;28;20429;-70
2021/01/01 00:27:37;;;;;;;14.83;10.33;;;;;;;4.91;68.08;95382.13;5063360;28;20469;-70
2021/01/01 00:30:08;;;;;;;14.33;10.70;;;;;;;4.87;68.16;95390.41;5038007;28;20432;-70
2021/01/01 00:32:34;;;;;;;16.20;12.10;;;;;;;4.79;68.22;95395.59;5056461;28;20975;-70
2021/01/01 00:34:59;;;;;;;17.40;11.93;;;;;;;4.99;67.70;95393.47;5049345;28;20514;-70
2021/01/01 00:37:26;;;;;;;16.03;12.33;;;;;;;5.02;67.53;95387.97;5061124;28;20459;-70
2021/01/01 00:39:51;;;;;;;15.23;11.70;;;;;;;4.90;67.67;95390.88;5045538;28;20237;-68
2021/01/01 00:42:17;;;;;;;18.60;12.20;;;;;;;5.04;68.02;95386.00;5065830;28;20437;-69
2021/01/01 00:44:43;;;;;;;15.30;11.40;;;;;;;5.06;67.36;95390.06;5057199;28;20249;-72
2021/01/01 00:47:10;;;;;;;17.20;12.77;;;;;;;4.89;68.29;95394.44;5056265;28;20214;-69
2021/01/01 00:49:36;;;;;;;18.47;12.10;;;;;;;4.74;68.62;95394.28;5063992;28;20266;-69
2021/01/01 00:52:05;;;;;;;18.70;12.13;;;;;;;4.86;68.04;95393.97;5058974;28;20439;-69
2021/01/01 00:54:32;;;;;;;14.53;10.77;;;;;;;4.99;67.66;95393.47;5055695;28;20519;-69
2021/01/01 00:56:58;;;;;;;17.50;12.43;;;;;;;4.62;68.77;95398.16;5059217;28;20433;-70
2021/01/01 00:59:24;;;;;;;18.57;13.23;;;;;;;4.17;70.49;95407.91;5047678;28;20433;-69
2021/01/01 01:01:50;;;;;;;20.67;12.80;;;;;;;4.38;70.19;95402.31;5054573;28;20515;-67
2021/01/01 01:04:15;;;;;;;16.17;11.77;;;;;;;4.52;69.75;95413.03;5061223;28;20466;-69
2021/01/01 01:06:41;;;;;;;17.70;11.63;;;;;;;4.48;69.86;95416.91;5055317;28;20202;-69
2021/01/01 01:09:07;;;;;;;17.37;11.40;;;;;;;4.66;69.20;95409.00;5055462;28;20846;-68
2021/01/01 01:11:33;;;;;;;14.73;11.50;;;;;;;4.66;69.05;95411.59;5032701;28;20193;-68
2021/01/01 01:13:59;;;;;;;15.60;11.80;;;;;;;4.72;69.11;95414.38;5056758;28;20551;-71
2021/01/01 01:16:27;;;;;;;16.37;11.47;;;;;;;4.15;70.34;95423.63;5060746;28;20422;-68
2021/01/01 01:18:54;;;;;;;15.10;11.37;;;;;;;4.39;70.08;95422.09;5057037;28;20491;-69
2021/01/01 01:21:21;;;;;;;16.00;11.73;;;;;;;4.00;71.24;95430.34;5045508;28;20800;-68
2021/01/01 01:23:47;;;;;;;14.70;10.87;;;;;;;3.98;71.59;95434.88;5057322;28;20516;-67
2021/01/01 01:26:12;;;;;;;13.27;10.40;;;;;;;4.29;70.71;95442.13;5055726;28;20925;-70
2021/01/01 01:28:38;;;;;;;12.73;9.80;;;;;;;4.49;69.53;95431.50;5057733;28;20468;-69
2021/01/01 01:31:04;;;;;;;14.63;11.17;;;;;;;4.31;70.07;95432.41;5058263;28;20516;-68
2021/01/01 01:33:31;;;;;;;15.17;11.67;;;;;;;4.44;69.91;95432.00;5062492;28;20210;-68
2021/01/01 01:35:58;;;;;;;16.63;11.50;;;;;;;4.32;70.08;95439.22;5068838;28;20435;-69
2021/01/01 01:38:24;;;;;;;15.53;11.50;;;;;;;4.34;70.34;95436.50;5067563;28;20532;-68
2021/01/01 01:40:50;;;;;;;18.43;12.13;;;;;;;4.40;69.93;95436.69;5059268;28;20459;-71
2021/01/01 01:43:16;;;;;;;18.00;12.20;;;;;;;4.48;69.68;95437.66;5064575;28;20471;-68
2021/01/01 01:45:42;;;;;;;15.97;12.50;;;;;;;4.51;69.49;95437.38;5039925;28;20183;-69
2021/01/01 01:48:12;;;;;;;17.07;11.80;;;;;;;4.65;69.13;95438.53;5035433;28;20453;-70
2021/01/01 01:50:37;;;;;;;18.47;12.80;;;;;;;4.48;69.77;95441.06;5033660;28;20532;-69
2021/01/01 01:53:05;;;;;;;19.27;13.20;;;;;;;4.24;70.61;95447.78;5044799;28;20558;-71
2021/01/01 01:55:31;;;;;;;18.50;13.90;;;;;;;4.46;70.53;95443.81;5067339;28;20434;-71
2021/01/01 01:57:57;;;;;;;17.50;12.83;;;;;;;4.51;69.27;95450.34;5064016;28;20429;-69
2021/01/01 02:02:53;;;;;;;16.30;12.63;;;;;;;4.65;69.44;95449.72;5052895;28;20210;-70
2021/01/01 02:05:19;;;;;;;19.47;12.80;;;;;;;4.65;68.89;95448.91;5072763;28;20420;-69
2021/01/01 02:07:47;;;;;;;21.67;14.60;;;;;;;4.62;69.41;95455.22;5054222;28;20479;-69
2021/01/01 02:10:13;;;;;;;23.30;13.30;;;;;;;4.81;68.89;95463.69;5060262;28;20927;-69
2021/01/01 02:12:40;;;;;;;21.67;14.63;;;;;;;4.83;68.61;95456.56;5073062;28;20448;-68
2021/01/01 02:15:06;;;;;;;21.53;13.60;;;;;;;4.61;69.11;95463.97;5070198;28;20437;-69
2021/01/01 02:17:32;;;;;;;20.97;13.93;;;;;;;4.78;68.54;95456.25;5074762;28;20510;-69
2021/01/01 02:20:08;;;;;;;19.37;14.10;;;;;;;4.69;68.95;95460.59;5070909;28;20440;-66
2021/01/01 02:22:41;;;;;;;21.63;15.03;;;;;;;4.80;68.74;95462.91;5051855;28;20219;-67
2021/01/01 02:25:09;;;;;;;21.23;14.50;;;;;;;4.52;69.78;95470.13;5070516;28;20523;-68
2021/01/01 02:27:35;;;;;;;20.70;14.50;;;;;;;4.80;68.82;95459.47;5081857;28;20456;-68
2021/01/01 02:30:01;;;;;;;20.23;14.23;;;;;;;5.02;67.68;95466.69;5068713;28;20438;-68
2021/01/01 02:32:27;;;;;;;22.50;14.70;;;;;;;4.35;69.76;95477.84;5048961;28;20460;-66
2021/01/01 02:34:52;;;;;;;20.13;14.50;;;;;;;3.95;71.36;95474.88;5049827;28;20437;-66
2021/01/01 02:37:18;;;;;;;21.17;14.03;;;;;;;4.43;70.31;95485.63;5074842;28;20179;-67
2021/01/01 02:39:44;;;;;;;22.50;14.87;;;;;;;4.53;69.94;95485.53;5074087;28;20910;-68
2021/01/01 02:42:10;;;;;;;23.10;15.77;;;;;;;4.57;69.55;95483.41;5071398;28;20576;-67
2021/01/01 02:44:35;;;;;;;20.90;14.57;;;;;;;4.56;69.44;95484.38;5074181;28;20281;-67
2021/01/01 02:47:02;;;;;;;21.73;14.70;;;;;;;4.81;68.42;95485.28;5073781;28;20187;-67
2021/01/01 02:49:28;;;;;;;22.03;15.60;;;;;;;4.69;68.90;95479.56;5074457;28;20549;-67
2021/01/01 02:51:54;;;;;;;21.13;14.30;;;;;;;4.80;69.28;95477.63;5070100;28;20455;-66
2021/01/01 02:54:19;;;;;;;23.87;15.00;;;;;;;4.88;68.32;95485.47;5073498;28;20183;-67
2021/01/01 02:56:46;;;;;;;23.00;14.63;;;;;;;4.75;69.26;95478.94;5073458;28;20709;-66
2021/01/01 02:59:11;;;;;;;22.43;15.07;;;;;;;4.71;69.39;95484.63;5071800;28;20250;-68
2021/01/01 03:01:37;;;;;;;26.27;14.97;;;;;;;4.65;69.90;95491.25;5073506;28;20451;-67
2021/01/01 03:04:03;;;;;;;28.50;16.17;;;;;;;4.78;69.40;95487.41;5073636;28;20661;-67
2021/01/01 03:06:28;;;;;;;26.23;16.10;;;;;;;4.71;69.69;95482.03;5069957;28;20190;-67
2021/01/01 03:08:54;;;;;;;26.33;16.63;;;;;;;4.80;69.45;95482.84;5069379;28;20202;-68
2021/01/01 03:11:20;;;;;;;24.97;16.07;;;;;;;4.96;69.98;95488.06;5064442;28;20189;-66
2021/01/01 03:13:46;;;;;;;21.67;15.30;;;;;;;4.96;69.78;95482.88;5073315;28;20289;-65
2021/01/01 03:16:12;;;;;;;24.20;15.70;;;;;;;5.00;69.11;95488.56;5070433;28;20452;-68
2021/01/01 03:18:37;;;;;;;27.07;16.63;;;;;;;5.05;69.14;95481.13;5072901;28;20174;-67
2021/01/01 03:21:04;;;;;;;26.30;16.20;;;;;;;5.12;68.96;95479.50;5071261;28;20291;-67
2021/01/01 03:23:30;;;;;;;22.03;15.70;;;;;;;5.22;68.35;95487.13;5068131;28;20205;-68
2021/01/01 03:25:55;;;;;;;23.13;15.53;;;;;;;5.21;68.16;95490.72;5052862;28;20424;-68
2021/01/01 03:28:21;;;;;;;24.77;16.70;;;;;;;5.02;68.50;95492.66;5072205;28;20220;-69
2021/01/01 03:30:47;;;;;;;24.53;15.73;;;;;;;4.94;68.44;95494.41;5069536;28;20724;-65
2021/01/01 03:33:13;;;;;;;23.37;15.90;;;;;;;4.95;69.12;95483.84;5065353;28;20456;-69
2021/01/01 03:35:39;;;;;;;23.90;16.10;;;;;;;4.94;68.89;95490.00;5072488;28;20185;-67
2021/01/01 03:38:06;;;;;;;25.77;16.80;;;;;;;5.06;68.67;95488.75;5072694;28;20531;-67
2021/01/01 03:40:31;;;;;;;25.37;17.17;;;;;;;5.04;68.86;95495.06;5068879;28;20464;-66
2021/01/01 03:42:57;;;;;;;24.07;15.87;;;;;;;4.53;70.01;95492.50;5072097;28;20886;-67
2021/01/01 03:45:23;;;;;;;23.70;16.50;;;;;;;4.48;70.55;95497.34;5072829;28;20198;-66
2021/01/01 03:47:49;;;;;;;23.50;16.50;;;;;;;4.66;69.86;95500.66;5070783;28;20464;-67
2021/01/01 03:50:14;;;;;;;25.07;16.53;;;;;;;4.60;69.75;95496.88;5072886;28;20174;-67
2021/01/01 03:52:40;;;;;;;26.37;17.10;;;;;;;4.64;70.20;95489.63;5072347;28;20202;-67
2021/01/01 03:55:07;;;;;;;26.60;17.27;;;;;;;4.79;69.47;95495.00;5072501;28;20263;-66
2021/01/01 03:57:32;;;;;;;25.50;17.17;;;;;;;4.88;69.73;95493.25;5072079;28;20412;-66
2021/01/01 03:59:58;;;;;;;24.87;16.30;;;;;;;4.96;69.35;95488.06;5071368;28;20516;-66
2021/01/01 04:02:24;;;;;;;28.50;17.80;;;;;;;5.00;68.85;95493.75;5072373;28;20202;-65
2021/01/01 04:04:50;;;;;;;27.57;17.70;;;;;;;4.97;68.44;95489.69;5071805;28;20416;-66
2021/01/01 04:07:16;;;;;;;24.47;16.70;;;;;;;4.95;68.33;95489.03;5072351;28;20803;-67
2021/01/01 04:09:43;;;;;;;24.87;17.37;;;;;;;4.87;69.14;95489.84;5069979;28;20186;-67
2021/01/01 04:12:09;;;;;;;24.43;16.70;;;;;;;4.79;69.33;95486.44;5063112;28;20509;-67
2021/01/01 04:14:34;;;;;;;28.33;17.70;;;;;;;4.51;69.08;95494.44;5071778;28;20939;-66
2021/01/01 04:17:00;;;;;;;25.90;17.50;;;;;;;4.67;69.15;95493.69;5071603;28;20424;-67
2021/01/01 04:19:26;;;;;;;27.37;17.77;;;;;;;4.53;69.63;95492.50;5072578;28;20220;-67
2021/01/01 04:21:51;;;;;;;26.30;17.93;;;;;;;4.50;70.21;95493.59;5070279;28;20243;-66
2021/01/01 04:24:18;;;;;;;23.90;16.70;;;;;;;4.74;69.51;95492.91;5071397;28;20573;-66
2021/01/01 04:26:47;;;;;;;27.73;17.30;;;;;;;4.84;68.90;95497.97;5071921;28;20240;-68
2021/01/01 04:29:13;;;;;;;25.80;17.83;;;;;;;4.91;69.11;95492.94;5068655;28;20505;-67
2021/01/01 04:31:39;;;;;;;27.40;17.73;;;;;;;4.92;68.26;95491.94;5044647;28;20429;-68
2021/01/01 04:34:06;;;;;;;31.83;18.13;;;;;;;4.88;68.54;95490.66;5053281;28;20179;-67
2021/01/01 04:36:32;;;;;;;25.73;17.73;;;;;;;4.94;68.85;95495.19;5061207;28;20432;-66
2021/01/01 04:38:58;;;;;;;24.33;15.97;;;;;;;5.07;68.48;95494.75;5064920;28;20402;-69
2021/01/01 04:41:23;;;;;;;26.37;16.53;;;;;;;5.05;68.43;95497.50;5051265;28;20433;-66
2021/01/01 04:43:53;;;;;;;26.23;17.40;;;;;;;4.91;68.46;95498.13;5056172;28;20207;-66
2021/01/01 04:46:19;;;;;;;26.80;17.47;;;;;;;4.70;69.54;95499.34;5055402;28;20528;-65
2021/01/01 04:48:45;;;;;;;25.87;16.57;;;;;;;4.92;68.59;95497.97;5061786;28;20460;-69
2021/01/01 04:51:12;;;;;;;25.63;17.57;;;;;;;5.02;68.55;95499.59;5066631;28;20455;-68
2021/01/01 04:53:39;;;;;;;26.23;17.60;;;;;;;4.71;69.18;95510.56;5072034;28;20445;-69
2021/01/01 04:56:06;;;;;;;27.90;18.43;;;;;;;4.78;69.47;95502.97;5056208;28;20457;-66
2021/01/01 04:58:32;;;;;;;25.83;17.30;;;;;;;4.89;68.92;95502.69;5055335;28;20425;-67
2021/01/01 05:00:58;;;;;;;24.87;17.10;;;;;;;4.99;68.61;95498.16;5059990;28;21108;-67
2021/01/01 05:03:24;;;;;;;24.73;17.60;;;;;;;5.08;68.63;95517.97;5059525;28;20469;-67
2021/01/01 05:05:50;;;;;;;29.53;18.60;;;;;;;5.15;67.95;95512.13;5052191;28;20452;-67
2021/01/01 05:08:17;;;;;;;24.30;16.67;;;;;;;4.93;68.39;95509.16;5057590;28;20461;-67
2021/01/01 05:10:44;;;;;;;23.60;16.70;;;;;;;4.97;68.69;95510.47;5055250;28;20520;-67
2021/01/01 05:13:13;;;;;;;29.17;18.10;;;;;;;4.81;69.15;95505.22;5042995;28;20519;-67
2021/01/01 05:15:40;;;;;;;28.00;16.57;;;;;;;4.88;68.92;95509.63;5051202;28;20430;-68
2021/01/01 05:18:25;;;;;;;29.53;18.43;;;;;;;5.08;68.65;95507.56;5050440;28;20512;-66
2021/01/01 05:21:02;;;;;;;27.70;16.30;;;;;;;5.20;68.26;95515.06;5060976;28;20467;-67
2021/01/01 05:23:29;;;;;;;26.57;16.67;;;;;;;5.11;68.14;95521.22;5050693;28;20451;-67
2021/01/01 05:26:11;;;;;;;25.73;16.53;;;;;;;5.03;68.27;95520.22;5051512;28;20512;-66
2021/01/01 05:28:52;;;;;;;25.20;16.90;;;;;;;5.19;67.73;95519.44;5051352;28;20496;-67
2021/01/01 05:31:23;;;;;;;26.13;17.17;;;;;;;5.34;67.44;95531.81;5042493;28;20418;-66
2021/01/01 05:34:01;;;;;;;26.47;17.03;;;;;;;5.38;67.54;95528.72;5050971;28;20571;-67
2021/01/01 05:36:32;;;;;;;28.07;16.83;;;;;;;5.43;67.47;95533.44;5050092;28;20436;-67
2021/01/01 05:38:59;;;;;;;24.23;15.10;;;;;;;5.48;67.29;95533.75;5055512;28;20430;-67
2021/01/01 05:41:33;;;;;;;21.87;15.53;;;;;;;5.43;67.22;95532.63;5060109;28;20433;-67
2021/01/01 05:44:16;;;;;;;25.10;16.13;;;;;;;5.35;67.46;95538.63;5057414;28;20472;-66
2021/01/01 05:47:01;;;;;;;24.23;16.80;;;;;;;5.11;67.94;95537.59;5051227;28;20429;-66
2021/01/01 05:49:34;;;;;;;29.80;16.53;;;;;;;5.18;67.95;95537.78;5044896;28;20444;-67
2021/01/01 05:52:18;;;;;;;21.93;15.73;;;;;;;4.94;68.70;95547.13;5050267;28;20458;-66
2021/01/01 05:54:45;;;;;;;29.40;18.40;;;;;;;4.58;70.40;95563.72;5050704;28;20934;-68
2021/01/01 05:57:12;;;;;;;27.43;18.00;;;;;;;4.42;71.00;95561.84;5050210;28;20425;-67
2021/01/01 05:59:42;;;;;;;31.10;17.97;;;;;;;4.47;70.70;95558.78;5050842;28;20739;-68
2021/01/01 06:02:09;;;;;;;29.23;18.43;;;;;;;4.72;70.46;95559.72;5049437;28;20457;-67
2021/01/01 06:04:36;;;;;;;29.33;16.57;;;;;;;4.46;70.79;95550.19;5050896;28;20440;-67
2021/01/01 06:07:03;;;;;;;25.67;16.87;;;;;;;4.24;71.69;95561.09;5050430;28;20425;-67
2021/01/01 06:09:30;;;;;;;23.20;15.77;;;;;;;4.39;71.06;95556.97;5052697;28;20432;-67
2021/01/01 06:12:04;;;;;;;21.93;14.87;;;;;;;3.86;73.25;95563.09;5049489;28;20532;-67
2021/01/01 06:14:55;;;;;;;18.40;12.63;;;;;;;3.67;72.95;95565.72;5050874;28;20508;-66
2021/01/01 06:17:21;;;;;;;20.03;11.40;;;;;;;3.80;73.03;95564.53;5049865;28;20418;-67
2021/01/01 06:19:49;;;;;;;18.90;11.83;;;;;;;3.73;73.01;95571.25;5049409;28;20483;-67
2021/01/01 06:22:22;;;;;;;17.07;11.10;;;;;;;3.73;73.04;95577.25;5049893;28;20456;-68
2021/01/01 06:24:50;;;;;;;14.87;10.77;;;;;;;3.51;73.55;95581.94;5050488;28;20483;-66
2021/01/01 06:27:17;;;;;;;17.13;10.70;;;;;;;3.44;74.62;95585.25;5050410;28;20976;-67
2021/01/01 06:29:45;;;;;;;15.53;10.73;;;;;;;3.52;74.07;95588.75;5050824;28;20499;-68
2021/01/01 06:32:11;;;;;;;17.40;11.20;;;;;;;3.57;74.39;95595.25;5041094;28;20441;-68
2021/01/01 06:34:37;;;;;;;16.30;10.70;;;;;;;3.64;74.22;95591.13;5053066;28;20516;-67
2021/01/01 06:37:03;;;;;;;19.93;11.40;;;;;;;3.76;73.13;95595.09;5054293;28;20459;-66
2021/01/01 06:39:40;;;;;;;18.77;12.20;;;;;;;3.64;74.19;95588.53;5051602;28;20425;-68
2021/01/01 06:42:06;;;;;;;19.80;12.83;;;;;;;3.62;73.73;95600.81;5055592;28;20293;-67
2021/01/01 06:44:33;;;;;;;16.20;10.70;;;;;;;3.66;73.60;95604.72;5054390;28;20535;-68
2021/01/01 06:46:59;;;;;;;19.23;12.77;;;;;;;3.65;73.88;95605.69;5055937;28;20464;-67
2021/01/01 06:49:35;;;;;;;21.83;13.30;;;;;;;3.95;73.45;95614.03;5054190;28;20838;-65
2021/01/01 06:52:16;;;;;;;18.47;12.07;;;;;;;4.23;71.89;95608.72;5055851;28;20206;-67
2021/01/01 06:54:57;;;;;;;18.20;11.37;;;;;;;4.29;71.39;95616.72;5072771;28;20421;-66
2021/01/01 06:57:28;;;;;;;20.13;11.80;;;;;;;4.36;71.28;95622.13;5061346;28;20412;-67
2021/01/01 06:59:54;;;;;;;16.23;10.97;;;;;;;4.46;70.81;95622.81;5073647;28;20444;-67
2021/01/01 07:02:29;;;;;;;16.10;11.10;;;;;;;4.14;70.84;95624.25;5074206;28;20487;-65
2021/01/01 07:04:56;;;;;;;16.17;10.93;;;;;;;4.12;71.26;95620.16;5073413;28;20439;-67
2021/01/01 07:07:42;;;;;;;19.57;11.80;;;;;;;4.28;71.17;95616.88;5073808;28;20463;-66
2021/01/01 07:10:12;;;;;;;16.37;11.13;;;;;;;4.23;71.17;95626.88;5072628;28;20460;-67
2021/01/01 07:12:38;;;;;;;17.20;11.57;;;;;;;4.34;70.70;95634.41;5073363;28;20440;-67
2021/01/01 07:15:33;;;;;;;18.13;11.20;;;;;;;4.57;70.22;95632.16;5073717;28;20435;-68
2021/01/01 07:17:59;;;;;;;21.30;12.43;;;;;;;4.71;70.04;95635.94;5074604;28;20203;-68
2021/01/01 07:20:25;;;;;;;18.10;11.40;;;;;;;4.52;69.82;95641.34;5066521;28;20429;-66
2021/01/01 07:22:58;;;;;;;18.30;11.50;;;;;;;4.18;70.57;95639.47;5070211;28;20646;-65
2021/01/01 07:25:37;;;;;;;19.73;11.07;;;;;;;4.28;70.48;95645.41;5071568;28;20425;-67
2021/01/01 07:28:07;;;;;;;12.00;8.60;;;;;;;4.18;70.65;95647.25;5071368;28;20528;-68
2021/01/01 07:30:36;;;;;;;14.50;9.10;;;;;;;3.98;71.29;95652.63;5072941;28;20440;-67
2021/01/01 07:33:02;;;;;;;13.67;8.90;;;;;;;4.03;71.58;95662.53;5073188;28;20449;-67
2021/01/01 07:35:29;;;;;;;13.27;8.50;;;;;;;4.29;70.28;95657.38;5073186;28;20424;-67
2021/01/01 07:37:55;;;;;;;12.63;8.90;;;;;;;4.27;70.22;95657.56;5071282;28;20516;-68
2021/01/01 07:40:21;;;;;;;10.87;8.03;;;;;;;4.02;70.74;95661.75;5073103;28;20440;-67
2021/01/01 07:42:52;;;;;;;12.83;8.60;;;;;;;4.18;70.68;95666.25;5070579;28;20762;-67
2021/01/01 07:45:18;;;;;;;13.80;8.30;;;;;;;4.21;70.48;95665.94;5071558;28;20432;-67
2021/01/01 07:47:45;;;;;;;11.00;8.13;;;;;;;3.98;70.87;95668.19;5070742;28;20457;-69
2021/01/01 07:50:18;;;;;;;12.67;8.07;;;;;;;4.11;70.63;95660.84;5071673;28;20424;-67
2021/01/01 07:52:45;;;;;;;18.27;7.90;;;;;;;4.25;70.00;95671.66;5068589;28;20579;-67
2021/01/01 07:55:11;;;;;;;13.20;8.57;;;;;;;4.36;69.71;95662.78;5070051;28;20445;-67
2021/01/01 07:57:39;;;;;;;11.43;7.57;;;;;;;4.27;69.89;95674.91;5063708;28;20432;-66
2021/01/01 08:00:08;;;;;;;9.93;7.60;;;;;;;4.17;70.25;95679.34;5072250;28;20421;-68
2021/01/01 08:02:35;;;;;;;10.17;7.80;;;;;;;3.93;70.84;95678.16;5054388;28;20479;-68
2021/01/01 08:05:02;;;;;;;12.20;7.80;;;;;;;3.88;70.98;95677.81;5072066;28;20562;-67
2021/01/01 08:07:28;;;;;;;11.27;7.30;;;;;;;4.39;69.73;95680.66;5070538;28;20456;-68
2021/01/01 08:09:54;;;;;;;10.70;7.50;;;;;;;4.48;69.19;95687.53;5070032;28;20432;-67
2021/01/01 08:12:20;;;;;;;10.17;6.93;;;;;;;4.13;70.06;95690.03;5072129;28;20692;-66
2021/01/01 08:14:52;;;;;;;9.90;7.17;;;;;;;4.51;68.64;95686.44;5072560;28;20244;-68
2021/01/01 08:17:29;;;;;;;9.80;6.80;;;;;;;4.32;68.35;95685.63;5071971;28;20261;-66
2021/01/01 08:19:58;;;;;;;10.60;6.83;;;;;;;4.02;69.42;95686.84;5062784;28;20432;-67
2021/01/01 08:22:31;;;;;;;10.33;6.20;;;;;;;4.11;68.77;95691.94;5067803;28;20539;-67
2021/01/01 08:24:57;;;;;;;7.40;5.90;;;;;;;4.06;68.50;95695.97;5072437;28;20803;-66
2021/01/01 08:27:24;;;;;;;8.27;6.33;;;;;;;4.26;67.86;95699.22;5054189;28;20448;-66
2021/01/01 08:29:52;;;;;;;8.00;5.60;;;;;;;3.98;68.94;95704.47;5070369;28;20403;-68
2021/01/01 08:32:18;;;;;;;7.23;5.53;;;;;;;4.33;67.91;95708.00;5070578;28;20448;-66
2021/01/01 08:34:51;;;;;;;6.83;5.10;;;;;;;4.29;67.86;95719.63;5070874;28;20420;-67
2021/01/01 08:37:18;;;;;;;6.73;5.47;;;;;;;4.30;68.13;95716.06;5071412;28;20432;-67
2021/01/01 08:39:44;;;;;;;11.73;5.07;;;;;;;4.25;67.67;95713.13;5071069;28;20468;-68
2021/01/01 08:42:14;;;;;;;7.50;5.37;;;;;;;4.36;67.61;95722.44;5069498;28;20449;-66
2021/01/01 08:44:40;;;;;;;7.40;5.47;;;;;;;4.21;67.32;95717.81;5063334;28;20561;-68
2021/01/01 08:47:06;;;;;;;6.13;4.67;;;;;;;4.56;66.22;95723.09;5069478;28;20995;-68
2021/01/01 08:49:33;;;;;;;5.60;4.53;;;;;;;4.81;65.71;95721.50;5072216;28;20511;-68
2021/01/01 08:52:09;;;;;;;6.97;4.77;;;;;;;4.57;65.57;95725.56;5071494;28;20228;-68
2021/01/01 08:54:34;;;;;;;5.57;4.73;;;;;;;4.75;65.53;95725.53;5080539;28;20426;-68
2021/01/01 08:57:00;;;;;;;6.50;4.50;;;;;;;4.67;65.73;95738.41;5071612;28;20863;-68
2021/01/01 08:59:27;;;;;;;6.00;4.97;;;;;;;4.43;66.40;95742.47;5071339;28;20190;-67
2021/01/01 09:01:53;;;;;;;5.60;4.40;;;;;;;4.36;66.46;95743.19;5071872;28;20428;-67
2021/01/01 09:04:26;;;;;;;7.13;4.70;;;;;;;4.39;66.64;95745.50;5071469;28;20797;-66
2021/01/01 09:06:59;;;;;;;4.67;4.17;;;;;;;4.40;66.46;95737.59;5070546;28;20420;-65
2021/01/01 09:09:30;;;;;;;6.90;5.07;;;;;;;4.77;65.34;95738.34;5066071;28;20421;-65
2021/01/01 09:12:16;;;;;;;5.17;4.23;;;;;;;4.59;65.01;95743.56;5061402;28;20504;-68
2021/01/01 09:14:52;;;;;;;4.97;4.03;;;;;;;4.32;65.16;95739.28;5070651;28;20435;-68
2021/01/01 09:17:19;;;;;;;4.80;4.20;;;;;;;4.24;65.67;95743.44;5057067;28;20420;-67
2021/01/01 09:19:45;;;;;;;4.50;3.13;;;;;;;4.15;64.92;95737.38;5071642;28;20455;-67
2021/01/01 09:22:16;;;;;;;4.27;3.80;;;;;;;4.53;64.63;95736.38;5066457;28;20436;-68
2021/01/01 09:24:42;;;;;;;5.10;3.80;;;;;;;4.61;65.08;95741.63;5071503;28;20266;-69
2021/01/01 09:27:08;;;;;;;4.47;3.70;;;;;;;4.94;63.62;95744.44;5070402;28;20512;-67
2021/01/01 09:29:34;;;;;;;4.10;3.37;;;;;;;4.86;64.22;95742.59;5065180;28;21006;-68
2021/01/01 09:31:59;;;;;;;4.10;3.63;;;;;;;5.02;63.07;95757.50;5069293;28;20273;-68
2021/01/01 09:34:25;;;;;;;5.20;3.77;;;;;;;5.22;63.53;95759.88;5070609;28;20189;-66
2021/01/01 09:36:51;;;;;;;4.40;4.00;;;;;;;5.16;61.89;95755.31;5070872;28;20190;-68
2021/01/01 09:39:17;;;;;;;4.43;3.70;;;;;;;4.50;63.93;95767.81;5069763;28;20793;-66
2021/01/01 09:41:49;;;;;;;4.33;3.80;;;;;;;4.36;64.15;95761.34;5069672;28;20597;-67
2021/01/01 09:44:15;;;;;;;3.90;3.50;;;;;;;4.84;62.62;95760.13;5056537;28;20201;-67
2021/01/01 09:46:44;;;;;;;4.90;3.70;;;;;;;4.85;62.86;95760.94;5069652;28;20463;-67
2021/01/01 09:49:10;;;;;;;4.07;3.50;;;;;;;4.56;63.27;95772.41;5052647;28;20608;-65
2021/01/01 09:51:38;;;;;;;5.53;4.00;;;;;;;4.82;62.76;95767.25;5065549;28;20432;-65
2021/01/01 09:54:04;;;;;;;4.60;3.93;;;;;;;5.25;62.05;95767.34;5069093;28;20825;-66
2021/01/01 09:56:34;;;;;;;3.93;3.53;;;;;;;5.22;61.37;95771.09;5071065;28;20493;-65
2021/01/01 09:59:00;;;;;;;3.83;3.50;;;;;;;4.88;62.37;95771.03;5052221;28;20466;-67
2021/01/01 10:01:30;;;;;;;4.50;3.30;;;;;;;4.80;62.20;95769.19;5071452;28;20971;-68
2021/01/01 10:03:55;;;;;;;4.20;3.70;;;;;;;4.54;63.10;95764.78;5071232;28;20448;-68
2021/01/01 10:06:21;;;;;;;4.03;3.20;;;;;;;5.04;62.36;95770.31;5070947;28;20916;-67
2021/01/01 10:08:47;;;;;;;8.70;3.40;;;;;;;4.92;63.22;95778.34;5070096;28;20275;-68
2021/01/01 10:11:13;;;;;;;4.23;3.70;;;;;;;4.68;62.98;95776.38;5073395;28;20190;-67
2021/01/01 10:13:39;;;;;;;3.43;3.03;;;;;;;5.48;61.73;95774.59;5075279;28;20325;-70
2021/01/01 10:16:07;;;;;;;4.50;3.50;;;;;;;5.82;59.90;95782.41;5074989;28;20459;-68
2021/01/01 10:18:32;;;;;;;4.57;3.63;;;;;;;5.80;58.98;95775.69;5072964;28;20985;-70
2021/01/01 10:20:58;;;;;;;3.97;3.33;;;;;;;5.93;59.25;95780.47;5071066;28;20426;-72
2021/01/01 10:23:24;;;;;;;4.57;3.37;;;;;;;5.99;59.20;95777.22;5074652;28;20224;-68
2021/01/01 10:25:51;;;;;;;7.33;3.80;;;;;;;6.04;58.30;95772.41;5073938;28;20429;-64
2021/01/01 10:28:17;;;;;;;4.17;3.27;;;;;;;5.84;59.25;95777.84;5067272;28;20229;-66
2021/01/01 10:30:44;;;;;;;4.20;3.70;;;;;;;6.24;58.81;95772.94;5073987;28;20500;-68
2021/01/01 10:33:10;;;;;;;5.33;3.93;;;;;;;6.41;58.31;95775.56;5076223;28;20828;-67
2021/01/01 10:35:36;;;;;;;3.43;3.00;;;;;;;6.27;58.02;95769.19;5076498;28;20782;-69
2021/01/01 10:38:03;;;;;;;6.03;3.60;;;;;;;5.48;58.90;95770.22;5074886;28;20420;-70
2021/01/01 10:40:28;;;;;;;4.90;3.90;;;;;;;5.90;58.33;95766.00;5074642;28;20424;-69
2021/01/01 10:42:54;;;;;;;6.63;4.13;;;;;;;6.04;57.16;95763.81;5071570;28;20966;-68
2021/01/01 10:45:20;;;;;;;5.40;3.80;;;;;;;5.83;58.15;95765.81;5074779;28;20199;-68
2021/01/01 10:47:47;;;;;;;5.63;3.57;;;;;;;5.66;58.62;95769.31;5074604;28;20229;-68
2021/01/01 10:50:13;;;;;;;4.57;4.00;;;;;;;5.97;57.83;95771.41;5076898;28;20186;-71
2021/01/01 10:52:38;;;;;;;4.40;3.47;;;;;;;5.90;57.56;95773.81;5071807;28;20812;-69
2021/01/01 10:55:05;;;;;;;3.90;3.50;;;;;;;5.76;57.64;95766.59;5072468;28;20565;-69
2021/01/01 10:57:30;;;;;;;4.50;3.70;;;;;;;5.68;58.35;95765.59;5071925;28;20179;-70
2021/01/01 10:59:56;;;;;;;6.10;3.90;;;;;;;5.32;59.05;95770.16;5070418;28;20436;-70
2021/01/01 11:02:22;;;;;;;4.80;3.70;;;;;;;5.61;58.53;95776.75;5068326;28;20210;-70
2021/01/01 11:04:48;;;;;;;4.97;3.63;;;;;;;5.65;58.59;95773.72;5070947;28;20204;-69
2021/01/01 11:07:13;;;;;;;4.23;3.27;;;;;;;5.90;58.60;95773.81;5073800;28;20236;-69
2021/01/01 11:09:39;;;;;;;7.90;4.80;;;;;;;6.10;57.76;95768.34;5071800;28;20193;-68
2021/01/01 11:12:06;;;;;;;4.90;3.70;;;;;;;5.87;57.95;95773.28;5073915;28;20205;-70
2021/01/01 12:26:05;;;;;;;4.53;3.80;;;;;;;5.76;58.09;95727.63;5076558;28;20503;-66
2021/01/01 12:28:31;;;;;;;6.23;5.07;;;;;;;5.73;57.38;95722.72;5073826;28;20550;-70
2021/01/01 12:30:57;;;;;;;7.60;5.07;;;;;;;6.02;56.87;95731.94;5074141;28;20439;-70
2021/01/01 12:33:23;;;;;;;6.80;5.00;;;;;;;6.07;56.98;95732.25;5073757;28;20458;-69
2021/01/01 12:35:49;;;;;;;5.97;4.63;;;;;;;5.85;57.15;95726.66;5090498;28;20826;-69
2021/01/01 12:38:15;;;;;;;6.43;4.30;;;;;;;6.09;55.93;95730.31;5089044;28;20182;-69
2021/01/01 12:40:40;;;;;;;7.47;5.33;;;;;;;6.33;55.80;95729.53;5090280;28;20451;-69
2021/01/01 12:43:06;;;;;;;6.77;4.90;;;;;;;5.65;56.82;95747.72;5069537;28;20285;-69
2021/01/01 12:45:32;;;;;;;6.40;5.50;;;;;;;6.33;56.10;95744.31;5061296;28;20229;-71
2021/01/01 12:47:58;;;;;;;4.90;4.40;;;;;;;6.40;55.46;95734.91;5088386;28;20978;-70